OMAA/AUH METAR and TAF weather

Enter ICAO airport designator
Station Type Date Time Source
OMAA METAR 2021/03/06 05:00 UTC NOAA

OMAA 060500Z 30010KT 9999 FEW018 23/18 Q1017 NOSIG


Station Type Date Time Source
OMAA Decoded METAR 2021/03/06 05:00 UTC NOAA

Abu Dhabi International Airport, United Arab Emirates (OMAA) 24-26N 054-39E 27M
Mar 06, 2021 - 12:00 AM EST / 2021.03.06 0500 UTC
Wind: from the WNW (300 degrees) at 12 MPH (10 KT):0
Visibility: greater than 7 mile(s):0
Sky conditions: mostly clear
Temperature: 73 F (23 C)
Dew Point: 64 F (18 C)
Relative Humidity: 73%
Pressure (altimeter): 30.03 in. Hg (1017 hPa)
ob: OMAA 060500Z 30010KT 9999 FEW018 23/18 Q1017 NOSIG
cycle: 5

Station Type Date Time Source
OMAA TAF 2021/03/05 18:02 UTC NOAA

TAF OMAA 051700Z 0518/0700 32005KT 8000 NSC PROB30
TEMPO 0522/0604 4000 HZ SCT025
BECMG 0606/0608 32015KT PROB30
TEMPO 0606/0615 32015G25KT 4000 BLDU

Example: see airport list